Time;durP1;ratioP1;P1;durP2;ratioP2;P2;SDS_P1;SDS_P2;PMS_P1;PMS_P2;Temp;Humidity;BMP_temperature;BMP_pressure;BME280_temperature;BME280_humidity;BME280_pressure;Samples;Min_cycle;Max_cycle;Signal;HPM_P1;HPM_P2
2021/09/18 00:01:11;;;;;;;;;;;;;;;18.16;52.80;101031.69;4990001;28;96816;-79
2021/09/18 00:03:38;;;;;;;;;;;;;;;17.77;54.05;101030.50;4993721;28;97014;-79
2021/09/18 00:06:05;;;;;;;;;;;;;;;17.50;55.13;101026.78;4996867;28;100915;-78
2021/09/18 00:08:31;;;;;;;;;;;;;;;17.60;54.93;101019.06;4977647;28;98943;-79
2021/09/18 00:10:58;;;;;;;;;;;;;;;18.30;53.40;101031.69;4998176;28;96722;-79
2021/09/18 00:13:25;;;;;;;;;;;;;;;18.36;52.84;101036.63;4994088;28;96946;-78
2021/09/18 00:15:51;;;;;;;;;;;;;;;18.36;52.95;101030.44;4990334;28;99953;-78
2021/09/18 00:18:17;;;;;;;;;;;;;;;17.97;54.12;101031.97;4990835;28;98919;-78
2021/09/18 00:20:44;;;;;;;;;;;;;;;17.69;54.79;101031.91;4992618;28;96863;-78
2021/09/18 00:23:11;;;;;;;;;;;;;;;18.15;54.06;101033.50;5000713;28;96823;-78
2021/09/18 00:25:38;;;;;;;;;;;;;;;18.42;53.57;101032.72;5007731;28;98952;-78
2021/09/18 00:28:04;;;;;;;;;;;;;;;17.95;54.63;101036.53;4991489;28;101557;-78
2021/09/18 00:30:30;;;;;;;;;;;;;;;18.37;53.78;101030.34;4992023;28;96948;-78
2021/09/18 00:32:56;;;;;;;;;;;;;;;18.16;54.06;101034.34;4993121;28;96858;-78
2021/09/18 00:35:23;;;;;;;;;;;;;;;18.67;52.80;101035.56;4994344;28;98870;-78
2021/09/18 00:37:49;;;;;;;;;;;;;;;17.38;56.43;101035.53;4992306;28;98967;-79
2021/09/18 00:40:17;;;;;;;;;;;;;;;18.37;53.93;101037.50;4994387;28;96844;-78
2021/09/18 00:42:43;;;;;;;;;;;;;;;18.65;52.74;101043.69;4982055;28;96879;-78
2021/09/18 00:45:10;;;;;;;;;;;;;;;18.88;52.19;101044.03;4998058;28;98682;-77
2021/09/18 00:47:36;;;;;;;;;;;;;;;18.08;54.34;101042.84;4997455;28;98430;-78
2021/09/18 00:50:05;;;;;;;;;;;;;;;18.31;53.84;101049.44;4992915;28;96785;-77
2021/09/18 00:52:31;;;;;;;;;;;;;;;18.82;52.43;101047.09;4989489;28;96989;-78
2021/09/18 00:54:58;;;;;;;;;;;;;;;18.75;52.30;101035.94;4992954;28;99083;-79
2021/09/18 00:57:25;;;;;;;;;;;;;;;18.68;52.55;101048.84;4994154;28;97837;-78
2021/09/18 00:59:52;;;;;;;;;;;;;;;18.74;52.35;101047.59;4993452;28;96673;-78
2021/09/18 01:02:18;;;;;;;;;;;;;;;18.59;53.07;101044.09;4994617;28;97048;-79
2021/09/18 01:04:44;;;;;;;;;;;;;;;18.50;53.37;101055.34;4993389;28;98920;-78
2021/09/18 01:07:11;;;;;;;;;;;;;;;18.39;53.89;101043.59;4991985;28;99139;-77
2021/09/18 01:09:37;;;;;;;;;;;;;;;18.38;53.87;101041.91;4993660;28;96765;-78
2021/09/18 01:12:04;;;;;;;;;;;;;;;18.03;55.09;101046.75;4994262;28;96881;-79
2021/09/18 01:14:32;;;;;;;;;;;;;;;18.17;54.98;101039.63;4992408;28;97842;-78
2021/09/18 01:17:00;;;;;;;;;;;;;;;18.48;53.86;101040.34;4993961;28;97741;-78
2021/09/18 01:19:26;;;;;;;;;;;;;;;18.41;53.93;101044.38;4992360;28;98928;-78
2021/09/18 01:21:53;;;;;;;;;;;;;;;18.40;54.02;101039.97;4990712;28;97333;-78
2021/09/18 01:24:21;;;;;;;;;;;;;;;18.46;53.89;101034.22;4987861;28;99063;-78
2021/09/18 01:26:47;;;;;;;;;;;;;;;18.14;54.95;101038.94;4999270;28;99375;-77
2021/09/18 01:29:14;;;;;;;;;;;;;;;17.82;56.06;101032.88;4999612;28;96720;-77
2021/09/18 01:31:41;;;;;;;;;;;;;;;18.07;54.96;101034.91;4996195;28;96941;-78
2021/09/18 01:34:07;;;;;;;;;;;;;;;18.13;55.00;101031.84;5001758;28;101268;-78
2021/09/18 01:36:34;;;;;;;;;;;;;;;18.27;54.61;101031.84;5006833;28;98668;-78
2021/09/18 01:39:00;;;;;;;;;;;;;;;17.22;57.58;101032.03;5009608;28;96874;-78
2021/09/18 01:41:31;;;;;;;;;;;;;;;18.03;55.82;101036.06;5009283;28;96858;-78
2021/09/18 01:43:58;;;;;;;;;;;;;;;18.01;55.63;101040.63;5009841;28;98209;-78
2021/09/18 01:46:25;;;;;;;;;;;;;;;17.80;56.32;101032.13;5006174;28;99160;-78
2021/09/18 01:48:51;;;;;;;;;;;;;;;17.86;55.96;101029.94;5013999;28;96826;-78
2021/09/18 01:51:17;;;;;;;;;;;;;;;17.92;55.71;101026.88;5016862;28;96570;-78
2021/09/18 01:53:43;;;;;;;;;;;;;;;17.80;56.09;101024.97;5010022;28;99303;-78
2021/09/18 01:56:10;;;;;;;;;;;;;;;18.44;54.44;101028.13;5010155;28;97722;-78
2021/09/18 01:58:37;;;;;;;;;;;;;;;18.32;54.82;101029.75;5003324;28;98588;-78
2021/09/18 02:01:04;;;;;;;;;;;;;;;18.35;54.63;101026.03;5003844;28;96985;-78
2021/09/18 02:03:30;;;;;;;;;;;;;;;18.54;53.96;101029.25;5007485;28;99223;-78
2021/09/18 02:05:57;;;;;;;;;;;;;;;18.28;54.77;101025.56;5008000;28;98909;-78
2021/09/18 02:08:23;;;;;;;;;;;;;;;18.50;54.55;101030.41;5009851;28;96747;-77
2021/09/18 02:10:52;;;;;;;;;;;;;;;18.19;54.98;101036.81;5007683;28;96613;-78
2021/09/18 02:13:19;;;;;;;;;;;;;;;18.41;54.53;101033.66;5003656;28;98124;-77
2021/09/18 02:15:46;;;;;;;;;;;;;;;18.24;54.93;101034.75;5004230;28;99227;-77
2021/09/18 02:18:13;;;;;;;;;;;;;;;18.52;54.33;101029.34;5004549;28;96691;-77
2021/09/18 02:20:40;;;;;;;;;;;;;;;18.35;54.73;101040.25;4997814;28;96968;-77
2021/09/18 02:23:07;;;;;;;;;;;;;;;17.82;56.35;101028.41;4996401;28;99247;-77
2021/09/18 02:25:34;;;;;;;;;;;;;;;18.29;55.00;101040.66;4997532;28;99337;-77
2021/09/18 02:28:01;;;;;;;;;;;;;;;18.58;54.42;101030.78;4995172;28;98718;-77
2021/09/18 02:30:28;;;;;;;;;;;;;;;18.41;54.95;101033.66;5003928;28;97075;-78
2021/09/18 02:32:56;;;;;;;;;;;;;;;18.26;55.21;101030.13;4982671;28;100704;-77
2021/09/18 02:35:23;;;;;;;;;;;;;;;18.51;54.83;101024.09;4994823;28;97548;-78
2021/09/18 02:37:52;;;;;;;;;;;;;;;18.25;55.56;101015.03;4993905;28;96975;-77
2021/09/18 02:40:18;;;;;;;;;;;;;;;18.42;55.18;101016.66;4978198;28;96858;-78
2021/09/18 02:42:46;;;;;;;;;;;;;;;18.40;55.05;101022.09;4976694;28;99338;-77
2021/09/18 02:45:13;;;;;;;;;;;;;;;18.08;56.17;101025.94;4993490;28;99408;-78
2021/09/18 02:47:39;;;;;;;;;;;;;;;18.43;55.32;101019.25;4995916;28;97059;-77
2021/09/18 02:50:08;;;;;;;;;;;;;;;18.06;56.22;101017.16;4993823;28;96867;-78
2021/09/18 02:52:34;;;;;;;;;;;;;;;17.92;56.61;101021.53;4995296;28;99307;-78
2021/09/18 02:55:00;;;;;;;;;;;;;;;18.17;56.25;101017.34;4993940;28;98834;-78
2021/09/18 02:57:27;;;;;;;;;;;;;;;18.19;56.11;101018.09;4992696;28;97006;-78
2021/09/18 02:59:53;;;;;;;;;;;;;;;18.08;56.36;101018.78;4994899;28;97092;-77
2021/09/18 03:02:19;;;;;;;;;;;;;;;18.62;55.00;101017.13;4994813;28;101740;-77
2021/09/18 03:04:45;;;;;;;;;;;;;;;18.53;55.40;101017.69;4994938;28;99402;-78
2021/09/18 03:07:13;;;;;;;;;;;;;;;18.42;55.58;101019.34;4988487;28;96923;-78
2021/09/18 03:09:39;;;;;;;;;;;;;;;18.36;55.60;101020.59;4992852;28;96999;-78
2021/09/18 03:12:06;;;;;;;;;;;;;;;18.14;56.07;101023.75;4974927;28;99087;-78
2021/09/18 03:14:32;;;;;;;;;;;;;;;18.21;56.22;101024.22;4979501;28;98861;-77
2021/09/18 03:16:58;;;;;;;;;;;;;;;18.42;55.79;101022.88;4995131;28;96946;-78
2021/09/18 03:19:25;;;;;;;;;;;;;;;17.94;57.27;101021.44;4993986;28;96821;-78
2021/09/18 03:21:53;;;;;;;;;;;;;;;17.56;58.47;101017.53;4996217;28;99180;-77
2021/09/18 03:24:21;;;;;;;;;;;;;;;18.06;56.82;101022.50;4988299;28;98746;-78
2021/09/18 03:26:47;;;;;;;;;;;;;;;17.81;57.72;101013.31;4978335;28;96798;-77
2021/09/18 03:29:13;;;;;;;;;;;;;;;18.08;57.14;101015.25;4994874;28;96837;-77
2021/09/18 03:31:42;;;;;;;;;;;;;;;18.18;56.73;101019.06;4994072;28;99117;-78
2021/09/18 03:34:08;;;;;;;;;;;;;;;17.84;57.43;101014.97;4993623;28;98934;-78
2021/09/18 03:36:34;;;;;;;;;;;;;;;18.04;57.35;101008.38;4996706;28;96772;-78
2021/09/18 03:39:01;;;;;;;;;;;;;;;17.98;57.44;101012.28;4997608;28;96857;-78
2021/09/18 03:41:28;;;;;;;;;;;;;;;17.65;58.53;101011.69;4998827;28;99191;-78
2021/09/18 03:43:55;;;;;;;;;;;;;;;18.13;56.97;101016.66;4976880;28;97836;-78
2021/09/18 03:46:21;;;;;;;;;;;;;;;17.97;57.53;101017.72;4994363;28;96951;-78
2021/09/18 03:48:47;;;;;;;;;;;;;;;18.28;56.71;101006.84;4995379;28;97242;-77
2021/09/18 03:51:16;;;;;;;;;;;;;;;18.25;56.77;101015.03;4987582;28;99298;-78
2021/09/18 03:53:42;;;;;;;;;;;;;;;17.99;57.48;101013.13;4977643;28;100419;-78
2021/09/18 03:56:09;;;;;;;;;;;;;;;18.29;56.92;101009.41;4993610;28;96979;-78
2021/09/18 03:58:36;;;;;;;;;;;;;;;18.33;56.44;101013.59;4991568;28;97185;-78
2021/09/18 04:01:03;;;;;;;;;;;;;;;18.30;56.97;101010.28;4990635;28;99221;-78
2021/09/18 04:03:29;;;;;;;;;;;;;;;18.41;56.56;101012.25;4994596;28;99216;-78
2021/09/18 04:05:55;;;;;;;;;;;;;;;18.73;55.84;101013.75;4989106;28;96862;-78
2021/09/18 04:08:21;;;;;;;;;;;;;;;18.44;56.72;101006.72;4998270;28;96990;-77
2021/09/18 04:10:48;;;;;;;;;;;;;;;18.49;56.34;101013.50;5017699;28;100500;-78
2021/09/18 04:13:14;;;;;;;;;;;;;;;18.05;57.79;101010.09;5018327;28;97763;-78
2021/09/18 04:15:42;;;;;;;;;;;;;;;18.20;57.63;101007.31;5016088;28;96731;-78
2021/09/18 04:18:08;;;;;;;;;;;;;;;18.44;56.97;101009.41;5005274;28;95973;-77
2021/09/18 04:20:34;;;;;;;;;;;;;;;18.38;57.45;101007.94;5011697;28;98101;-79
2021/09/18 04:23:01;;;;;;;;;;;;;;;18.10;58.30;101010.66;5013646;28;98165;-79
2021/09/18 04:25:27;;;;;;;;;;;;;;;18.50;56.98;101007.19;5018558;28;96560;-77
2021/09/18 04:27:53;;;;;;;;;;;;;;;18.73;56.54;101004.84;5017780;28;97856;-77
2021/09/18 04:30:22;;;;;;;;;;;;;;;18.74;56.68;101003.91;5018621;28;97805;-77
2021/09/18 04:32:50;;;;;;;;;;;;;;;18.51;57.54;101008.88;5014645;28;98130;-77
2021/09/18 04:35:16;;;;;;;;;;;;;;;18.08;58.98;101008.09;5018828;28;96225;-77
2021/09/18 04:37:43;;;;;;;;;;;;;;;18.12;59.26;101009.59;5018245;28;96805;-78
2021/09/18 04:40:09;;;;;;;;;;;;;;;18.37;58.72;101010.75;5016732;28;97778;-78
2021/09/18 04:42:36;;;;;;;;;;;;;;;18.58;57.74;101009.38;5002432;28;97718;-78
2021/09/18 04:45:05;;;;;;;;;;;;;;;18.06;59.24;101006.44;4987965;28;97194;-78
2021/09/18 04:47:31;;;;;;;;;;;;;;;17.28;62.40;101002.28;4994743;28;96862;-78
2021/09/18 04:49:58;;;;;;;;;;;;;;;17.67;61.49;101010.63;4980367;28;98962;-78
2021/09/18 04:52:27;;;;;;;;;;;;;;;17.77;61.18;101011.78;4989228;28;99100;-78
2021/09/18 04:54:54;;;;;;;;;;;;;;;17.66;61.95;101014.25;4993746;28;97069;-78
2021/09/18 04:57:23;;;;;;;;;;;;;;;17.81;61.77;101013.31;4994032;28;97616;-78
2021/09/18 04:59:49;;;;;;;;;;;;;;;17.75;61.60;101024.38;4993460;28;99014;-78
2021/09/18 05:02:17;;;;;;;;;;;;;;;17.99;60.90;101018.47;4995897;28;98813;-78
2021/09/18 05:04:43;;;;;;;;;;;;;;;17.56;62.40;101020.22;4998097;28;96958;-78
2021/09/18 05:07:11;;;;;;;;;;;;;;;17.50;62.73;101021.44;5004183;28;96815;-77
2021/09/18 05:09:37;;;;;;;;;;;;;;;17.75;62.05;101028.88;4995598;28;98302;-79
2021/09/18 05:12:04;;;;;;;;;;;;;;;17.66;62.62;101024.06;4994754;28;99196;-78
2021/09/18 05:14:30;;;;;;;;;;;;;;;17.75;62.56;101027.06;4996963;28;96886;-78
2021/09/18 05:16:56;;;;;;;;;;;;;;;17.57;63.99;101029.94;4997143;28;96854;-78
2021/09/18 05:19:22;;;;;;;;;;;;;;;17.67;63.32;101029.31;4996088;28;98982;-78
2021/09/18 05:21:49;;;;;;;;;;;;;;;17.32;64.92;101031.41;4996426;28;99189;-78
2021/09/18 05:24:16;;;;;;;;;;;;;;;17.84;63.13;101026.50;4996708;28;96778;-78
2021/09/18 05:26:42;;;;;;;;;;;;;;;17.76;63.55;101030.59;5001631;28;96759;-79
2021/09/18 05:29:09;;;;;;;;;;;;;;;17.89;63.08;101029.75;4995763;28;99473;-77
2021/09/18 05:31:36;;;;;;;;;;;;;;;17.31;65.00;101039.50;4995911;28;98997;-77
2021/09/18 05:34:02;;;;;;;;;;;;;;;17.91;63.15;101045.72;4995090;28;96848;-77
2021/09/18 05:36:28;;;;;;;;;;;;;;;17.99;62.93;101047.88;4979669;28;97630;-78
2021/09/18 05:38:54;;;;;;;;;;;;;;;18.22;62.00;101047.34;4995351;28;99226;-78
2021/09/18 05:41:22;;;;;;;;;;;;;;;18.36;61.29;101049.16;4995457;28;99373;-77
2021/09/18 05:43:48;;;;;;;;;;;;;;;18.48;60.79;101048.38;4995722;28;98520;-77
2021/09/18 05:46:15;;;;;;;;;;;;;;;18.41;60.66;101045.22;4998802;28;96818;-78
2021/09/18 05:48:41;;;;;;;;;;;;;;;18.09;62.10;101051.72;4995752;28;98919;-78
2021/09/18 05:51:07;;;;;;;;;;;;;;;18.16;61.90;101045.91;4987319;28;99058;-78
2021/09/18 05:53:33;;;;;;;;;;;;;;;18.20;61.96;101047.44;4993749;28;96997;-77
2021/09/18 05:56:00;;;;;;;;;;;;;;;18.36;61.63;101058.03;4997856;28;97102;-78
2021/09/18 05:58:27;;;;;;;;;;;;;;;18.35;61.72;101050.97;4995760;28;99185;-78
2021/09/18 06:00:54;;;;;;;;;;;;;;;18.44;61.18;101047.72;5006922;28;98761;-77
2021/09/18 06:03:20;;;;;;;;;;;;;;;18.03;62.19;101050.31;5001790;28;96777;-78
2021/09/18 06:05:47;;;;;;;;;;;;;;;18.34;61.96;101059.94;4998633;28;96977;-78
2021/09/18 06:08:13;;;;;;;;;;;;;;;18.08;62.62;101055.34;4998788;28;99242;-79
2021/09/18 06:10:39;;;;;;;;;;;;;;;18.32;62.04;101061.84;4999494;28;99173;-78
2021/09/18 06:13:06;;;;;;;;;;;;;;;18.22;62.54;101058.03;4990333;28;96836;-78
2021/09/18 06:15:33;;;;;;;;;;;;;;;18.39;62.19;101059.66;4991977;28;97571;-78
2021/09/18 06:18:00;;;;;;;;;;;;;;;18.08;62.54;101058.88;4998090;28;99360;-77
2021/09/18 06:20:27;;;;;;;;;;;;;;;18.25;62.58;101055.16;4999113;28;99184;-78
2021/09/18 06:22:54;;;;;;;;;;;;;;;18.39;61.99;101056.97;4993173;28;96867;-77
2021/09/18 06:25:20;;;;;;;;;;;;;;;18.59;61.39;101054.78;4993285;28;97777;-78
2021/09/18 06:27:47;;;;;;;;;;;;;;;18.29;62.26;101062.91;4984963;28;98920;-79
2021/09/18 06:30:14;;;;;;;;;;;;;;;18.34;62.43;101070.63;4976724;28;98320;-78
2021/09/18 06:32:42;;;;;;;;;;;;;;;18.39;62.18;101070.34;4988582;28;97189;-79
2021/09/18 06:35:09;;;;;;;;;;;;;;;18.55;62.10;101068.44;4986333;28;96793;-78
2021/09/18 06:37:40;;;;;;;;;;;;;;;18.48;62.21;101078.66;4996421;28;98889;-79
2021/09/18 06:40:07;;;;;;;;;;;;;;;18.45;62.42;101084.19;4996570;28;97647;-77
2021/09/18 06:42:34;;;;;;;;;;;;;;;18.73;61.62;101083.34;4996836;28;98769;-78
2021/09/18 06:45:00;;;;;;;;;;;;;;;18.68;61.44;101080.13;4997966;28;96661;-78
2021/09/18 06:47:26;;;;;;;;;;;;;;;18.94;61.08;101078.44;4996273;28;99199;-78
2021/09/18 06:49:54;;;;;;;;;;;;;;;18.86;61.64;101083.41;4996349;28;98865;-82
2021/09/18 06:52:20;;;;;;;;;;;;;;;18.79;61.96;101087.44;5016420;28;96716;-81
2021/09/18 06:54:47;;;;;;;;;;;;;;;18.51;62.37;101093.69;4956178;28;96737;-77
2021/09/18 06:57:14;;;;;;;;;;;;;;;18.83;61.54;101078.28;4993183;28;99303;-78
2021/09/18 06:59:40;;;;;;;;;;;;;;;18.82;61.73;101084.59;5000954;28;101368;-78
2021/09/18 07:02:08;;;;;;;;;;;;;;;18.73;62.30;101087.84;4982411;28;96887;-80
2021/09/18 07:04:35;;;;;;;;;;;;;;;19.12;61.26;101093.28;4979123;28;97084;-79
2021/09/18 07:07:03;;;;;;;;;;;;;;;19.17;60.73;101093.84;4994698;28;98541;-78
2021/09/18 07:09:29;;;;;;;;;;;;;;;19.25;60.45;101088.00;4987595;28;99137;-77
2021/09/18 07:11:56;;;;;;;;;;;;;;;19.33;60.43;101091.03;5006174;28;96759;-76
2021/09/18 07:14:22;;;;;;;;;;;;;;;19.13;60.92;101097.69;5026365;28;96683;-77
2021/09/18 07:16:49;;;;;;;;;;;;;;;19.50;60.02;101091.66;5018178;28;97562;-76
2021/09/18 07:19:15;;;;;;;;;;;;;;;19.70;59.53;101097.47;4989957;28;96822;-79
2021/09/18 07:21:42;;;;;;;;;;;;;;;19.69;59.69;101104.66;4988930;28;96757;-78
2021/09/18 07:24:12;;;;;;;;;;;;;;;19.60;59.61;101094.59;4988418;28;96720;-78
2021/09/18 07:26:38;;;;;;;;;;;;;;;19.77;59.45;101104.16;5004145;28;97787;-78
2021/09/18 07:29:05;;;;;;;;;;;;;;;19.68;59.61;101097.59;5008059;28;101486;-79
2021/09/18 07:37:28;;;;;;;;;;;;;;;19.84;59.99;101110.81;4995600;28;96497;-79
2021/09/18 07:43:00;;;;;;;;;;;;;;;20.42;58.29;101110.34;5012976;28;96655;-78
2021/09/18 07:45:27;;;;;;;;;;;;;;;20.30;58.54;101111.16;5011492;28;96911;-79
2021/09/18 07:47:53;;;;;;;;;;;;;;;20.35;58.39;101118.97;5001129;28;102074;-79
2021/09/18 07:50:20;;;;;;;;;;;;;;;20.40;58.78;101120.34;5010126;28;98008;-81
2021/09/18 07:52:49;;;;;;;;;;;;;;;20.57;58.01;101121.81;5007885;28;97123;-80
2021/09/18 07:55:15;;;;;;;;;;;;;;;20.92;57.41;101128.22;5006937;28;97038;-80
2021/09/18 07:57:42;;;;;;;;;;;;;;;20.89;57.48;101122.19;4983603;28;98114;-81
2021/09/18 08:03:05;;;;;;;;;;;;;;;20.51;59.07;101124.94;5251550;22;98485;-80
2021/09/18 08:05:58;;;;;;;;;;;;;;;21.13;57.27;101120.41;5039734;23;96760;-78
2021/09/18 08:08:47;;;;;;;;;;;;;;;21.41;56.28;101116.56;5022306;28;97681;-81
2021/09/18 08:11:13;;;;;;;;;;;;;;;21.39;56.47;101127.44;5028543;28;100039;-80
2021/09/18 08:13:40;;;;;;;;;;;;;;;21.39;56.63;101131.97;5006192;28;97042;-80
2021/09/18 08:16:08;;;;;;;;;;;;;;;21.42;56.11;101124.50;5014490;28;96813;-79
2021/09/18 08:18:36;;;;;;;;;;;;;;;21.60;55.38;101121.41;5014230;28;97903;-80
2021/09/18 08:21:03;;;;;;;;;;;;;;;21.73;54.90;101123.03;5012441;28;98789;-78
2021/09/18 08:23:30;;;;;;;;;;;;;;;21.60;55.72;101122.25;5017213;28;96926;-79
2021/09/18 08:25:56;;;;;;;;;;;;;;;21.56;55.24;101128.00;5012839;28;97020;-79
2021/09/18 08:28:22;;;;;;;;;;;;;;;21.95;54.28;101130.34;5018130;28;97810;-79
2021/09/18 08:30:49;;;;;;;;;;;;;;;22.10;53.87;101131.03;5015446;28;97202;-79
2021/09/18 08:33:15;;;;;;;;;;;;;;;22.04;53.87;101132.38;5022272;28;96571;-81
2021/09/18 08:35:43;;;;;;;;;;;;;;;21.20;56.30;101131.59;5023324;28;97016;-81
2021/09/18 08:38:09;;;;;;;;;;;;;;;21.72;54.85;101131.25;5019188;28;99468;-81
2021/09/18 08:40:37;;;;;;;;;;;;;;;21.75;55.07;101133.69;5014124;28;97975;-79
2021/09/18 08:43:04;;;;;;;;;;;;;;;22.26;53.28;101136.91;5021867;28;96780;-79
2021/09/18 08:45:30;;;;;;;;;;;;;;;22.72;51.78;101138.66;5015563;28;96758;-78
2021/09/18 08:50:45;;;;;;;;;;;;;;;21.69;54.28;101139.53;5020373;28;96841;-81
2021/09/18 08:53:12;;;;;;;;;;;;;;;21.95;53.90;101140.25;5024108;28;96931;-81
2021/09/18 08:55:38;;;;;;;;;;;;;;;22.45;52.43;101145.28;5021623;28;96957;-81
2021/09/18 08:58:05;;;;;;;;;;;;;;;22.48;52.39;101136.97;5019843;28;99277;-81
2021/09/18 09:00:56;;;;;;;;;;;;;;;22.30;52.17;101135.72;5020377;28;98196;-81
2021/09/18 09:03:25;;;;;;;;;;;;;;;22.51;51.23;101135.88;5025020;28;96749;-81
2021/09/18 09:05:59;;;;;;;;;;;;;;;22.72;50.77;101144.06;5021135;28;96722;-81
2021/09/18 09:08:26;;;;;;;;;;;;;;;21.89;53.19;101141.56;5022213;28;97802;-82
2021/09/18 09:10:53;;;;;;;;;;;;;;;22.44;52.57;101146.28;5024348;28;96786;-81
2021/09/18 09:13:23;;;;;;;;;;;;;;;22.01;53.82;101143.34;5035025;28;96784;-80
2021/09/18 09:15:50;;;;;;;;;;;;;;;22.78;51.89;101149.00;5038075;28;96568;-80
2021/09/18 09:18:19;;;;;;;;;;;;;;;23.15;50.92;101144.19;5032880;28;97767;-81
2021/09/18 09:20:47;;;;;;;;;;;;;;;23.17;50.74;101145.75;5027537;28;99473;-81
2021/09/18 09:23:16;;;;;;;;;;;;;;;22.57;52.48;101149.72;5022488;28;96866;-81
2021/09/18 09:25:43;;;;;;;;;;;;;;;21.84;55.82;101160.78;5021728;28;96873;-81
2021/09/18 09:28:29;;;;;;;;;;;;;;;21.11;59.93;101172.53;5026901;28;97182;-80
2021/09/18 09:31:00;;;;;;;;;;;;;;;20.38;62.85;101177.78;5020183;28;99994;-81
2021/09/18 09:33:27;;;;;;;;;;;;;;;20.75;61.26;101171.53;5022540;28;96701;-82
2021/09/18 09:35:53;;;;;;;;;;;;;;;20.62;61.96;101176.03;5019380;28;96972;-81
2021/09/18 09:38:21;;;;;;;;;;;;;;;20.62;62.10;101178.72;5019611;28;98052;-81
2021/09/18 09:40:49;;;;;;;;;;;;;;;20.81;61.61;101171.06;5020441;28;98118;-82
2021/09/18 09:43:17;;;;;;;;;;;;;;;21.07;60.33;101180.81;5007002;28;96639;-81
2021/09/18 09:45:44;;;;;;;;;;;;;;;21.83;58.48;101175.19;5014898;28;96797;-82
2021/09/18 09:48:13;;;;;;;;;;;;;;;22.09;58.39;101175.06;5017030;28;99240;-80
2021/09/18 09:50:41;;;;;;;;;;;;;;;21.86;58.94;101174.94;5019083;28;97760;-80
2021/09/18 09:53:22;;;;;;;;;;;;;;;22.30;57.10;101178.78;5018797;28;97028;-82
2021/09/18 09:55:50;;;;;;;;;;;;;;;22.12;57.91;101181.06;5019352;28;97152;-82
2021/09/18 09:58:17;;;;;;;;;;;;;;;21.35;59.87;101184.22;5019142;28;99049;-81
2021/09/18 10:00:46;;;;;;;;;;;;;;;21.79;58.16;101179.06;5025269;28;98961;-82
2021/09/18 10:03:12;;;;;;;;;;;;;;;21.53;58.10;101182.84;5021364;28;97255;-81
2021/09/18 10:05:39;;;;;;;;;;;;;;;22.23;56.97;101182.94;5023699;28;96919;-82
2021/09/18 10:08:06;;;;;;;;;;;;;;;21.93;57.17;101188.78;5025646;28;99399;-82
2021/09/18 10:10:34;;;;;;;;;;;;;;;22.05;55.82;101192.44;5033290;27;101149;-82
2021/09/18 10:13:05;;;;;;;;;;;;;;;22.78;55.35;101192.09;5040668;27;96524;-82
2021/09/18 10:15:32;;;;;;;;;;;;;;;23.20;53.44;101188.66;5041685;27;95937;-82
2021/09/18 10:18:00;;;;;;;;;;;;;;;24.34;50.95;101178.25;5040364;28;98319;-80
2021/09/18 10:25:58;;;;;;;;;;;;;;;22.80;52.10;101190.13;5037907;27;95993;-81
2021/09/18 10:28:27;;;;;;;;;;;;;;;21.70;54.68;101187.84;5040731;27;100855;-81
2021/09/18 10:30:54;;;;;;;;;;;;;;;22.49;52.50;101195.22;5041219;28;97962;-79
2021/09/18 10:33:32;;;;;;;;;;;;;;;22.66;52.22;101192.06;5148418;22;99046;-82
2021/09/18 10:36:01;;;;;;;;;;;;;;;21.99;54.45;101192.91;5039998;28;96034;-81
2021/09/18 10:38:28;;;;;;;;;;;;;;;21.88;55.47;101199.91;5039779;27;98222;-81
2021/09/18 10:40:57;;;;;;;;;;;;;;;22.79;53.12;101202.75;5040662;27;98031;-80
2021/09/18 10:43:30;;;;;;;;;;;;;;;22.99;52.26;101203.84;5038222;27;96592;-82
2021/09/18 10:45:57;;;;;;;;;;;;;;;22.36;53.17;101201.69;5022999;28;96842;-81
2021/09/18 10:48:40;;;;;;;;;;;;;;;22.21;53.26;101206.41;5021681;28;98976;-80
2021/09/18 10:51:08;;;;;;;;;;;;;;;22.38;53.20;101207.81;5021591;28;99982;-81
2021/09/18 10:53:53;;;;;;;;;;;;;;;22.24;52.11;101200.81;5020474;28;96686;-81
2021/09/18 10:56:20;;;;;;;;;;;;;;;22.36;51.71;101209.75;5037769;28;96680;-80
2021/09/18 10:59:05;;;;;;;;;;;;;;;22.10;52.94;101203.69;5039179;28;97113;-81
2021/09/18 11:01:37;;;;;;;;;;;;;;;21.02;56.83;101225.97;5040003;28;97164;-81
2021/09/18 11:04:04;;;;;;;;;;;;;;;20.20;60.36;101220.97;5038421;27;96624;-81
2021/09/18 11:06:35;;;;;;;;;;;;;;;20.71;58.66;101215.69;5031809;28;96335;-80
2021/09/18 11:09:02;;;;;;;;;;;;;;;21.64;55.97;101217.88;5026488;28;99554;-81
2021/09/18 11:11:32;;;;;;;;;;;;;;;21.70;55.37;101212.06;5017432;28;99187;-81
2021/09/18 11:14:00;;;;;;;;;;;;;;;22.01;55.23;101229.47;5028301;28;96704;-82
2021/09/18 11:16:28;;;;;;;;;;;;;;;22.19;54.27;101229.88;5023008;28;96863;-82
2021/09/18 11:18:59;;;;;;;;;;;;;;;21.23;55.33;101241.56;5026634;28;99203;-81
2021/09/18 11:21:26;;;;;;;;;;;;;;;21.53;54.70;101233.09;5018479;28;96771;-82
2021/09/18 11:23:53;;;;;;;;;;;;;;;21.45;54.93;101237.22;5019042;28;96776;-82
2021/09/18 11:26:38;;;;;;;;;;;;;;;21.82;55.07;101235.34;5019813;28;96821;-81
2021/09/18 11:29:29;;;;;;;;;;;;;;;23.09;50.77;101234.50;5018235;28;99711;-80
2021/09/18 11:32:15;;;;;;;;;;;;;;;21.59;55.30;101243.41;5007711;28;99500;-81
2021/09/18 11:34:43;;;;;;;;;;;;;;;20.45;56.88;101251.53;5018724;28;96743;-82
2021/09/18 11:37:12;;;;;;;;;;;;;;;20.18;58.68;101265.84;5017611;28;97178;-81
2021/09/18 11:39:46;;;;;;;;;;;;;;;20.60;57.02;101261.22;5022445;28;99253;-81
2021/09/18 11:42:34;;;;;;;;;;;;;;;19.47;59.41;101268.75;5032831;28;98555;-81
2021/09/18 11:45:03;;;;;;;;;;;;;;;19.18;62.12;101277.72;5030084;28;96787;-81
2021/09/18 11:47:34;;;;;;;;;;;;;;;19.20;61.37;101278.50;5025604;28;96630;-80
2021/09/18 11:50:01;;;;;;;;;;;;;;;19.96;59.31;101286.13;5016126;28;99022;-80
2021/09/18 11:52:35;;;;;;;;;;;;;;;20.07;58.43;101280.94;5002998;28;99817;-81
2021/09/18 11:55:02;;;;;;;;;;;;;;;20.72;56.40;101271.13;5007342;28;97109;-81
2021/09/18 11:57:28;;;;;;;;;;;;;;;20.30;57.59;101278.41;5017087;28;96794;-82
2021/09/18 11:59:55;;;;;;;;;;;;;;;20.34;56.66;101279.13;5020800;28;98076;-81
2021/09/18 12:02:29;;;;;;;;;;;;;;;21.58;53.60;101280.19;5013083;28;98101;-82
2021/09/18 12:04:58;;;;;;;;;;;;;;;21.40;53.62;101271.59;5006757;28;96833;-81
2021/09/18 12:07:25;;;;;;;;;;;;;;;21.08;53.43;101279.25;5017784;28;97278;-81
2021/09/18 12:09:52;;;;;;;;;;;;;;;21.25;53.49;101270.06;5015923;28;101124;-81
2021/09/18 12:12:27;;;;;;;;;;;;;;;21.16;53.06;101273.38;5028486;28;97758;-81
2021/09/18 12:14:54;;;;;;;;;;;;;;;21.56;51.84;101270.50;5025135;28;96611;-82
2021/09/18 12:17:38;;;;;;;;;;;;;;;21.35;52.00;101272.91;5023672;28;97153;-81
2021/09/18 12:20:10;;;;;;;;;;;;;;;21.57;51.74;101273.09;5024594;28;99479;-82
2021/09/18 12:22:36;;;;;;;;;;;;;;;21.66;50.94;101271.56;5023048;28;101868;-82
2021/09/18 12:25:03;;;;;;;;;;;;;;;22.01;50.44;101271.66;5023278;28;96777;-81
2021/09/18 12:27:31;;;;;;;;;;;;;;;22.20;49.46;101271.97;5017179;28;97394;-82
2021/09/18 12:30:02;;;;;;;;;;;;;;;22.10;49.95;101277.22;5016086;28;97696;-82
2021/09/18 12:32:30;;;;;;;;;;;;;;;21.97;50.19;101278.25;5016992;28;98219;-81
2021/09/18 12:34:57;;;;;;;;;;;;;;;22.20;49.24;101280.06;5022097;28;96739;-81
2021/09/18 12:37:31;;;;;;;;;;;;;;;21.81;50.37;101278.50;5024731;28;96835;-82
2021/09/18 12:40:08;;;;;;;;;;;;;;;21.95;50.11;101280.16;5016231;28;101756;-81
2021/09/18 12:42:35;;;;;;;;;;;;;;;21.79;50.08;101292.03;5017977;28;98219;-81
2021/09/18 12:45:01;;;;;;;;;;;;;;;21.36;50.95;101293.47;5017319;28;98271;-81
2021/09/18 12:47:28;;;;;;;;;;;;;;;20.52;52.73;101290.41;5021106;28;96853;-81
2021/09/18 12:49:54;;;;;;;;;;;;;;;19.94;55.15;101305.03;5018586;28;100855;-81
2021/09/18 12:52:31;;;;;;;;;;;;;;;20.49;53.74;101291.47;5015996;28;98031;-80
2021/09/18 12:55:02;;;;;;;;;;;;;;;20.42;53.13;101311.63;5015493;28;96768;-81
2021/09/18 12:57:31;;;;;;;;;;;;;;;20.45;52.41;101305.22;5018379;28;96718;-81
2021/09/18 13:00:05;;;;;;;;;;;;;;;20.64;51.79;101311.06;5016592;28;99662;-81